Newton Lower Falls, Massachusetts
Current Conditions -  °F | °C
As of 2:56 AM on Friday 24 Oct 2014 (Local Time) from KBED Reporting Station
Light Rain Light Rain  
Wind Chill: 46°   Ceiling: 1500
Heat Index: 49°   Visibility: 8mi
Dew Point: 47°   Wind: 7mph
Humidity: 93%   Direction: 320°NW
Pressure: 29.66"   Gusts: NA
Location:  42.33°N, 71.26°W
Report Text: KBED 240656Z AUTO 32006KT 8SM -RA SCT009 OVC015 09/08 A2966 RMK AO2 RAB09 SLP058 P0001 T00940083 TSNO
Loading
Personal Weather Stations






























Interactive Weather Map
Tropical Storm Tracking
New forecast layout! Learn more

10-Day Weather Forecast

Advertisements
Track Severe Weather on mobile